Time;durP1;ratioP1;P1;durP2;ratioP2;P2;SDS_P1;SDS_P2;PMS_P1;PMS_P2;Temp;Humidity;BMP_temperature;BMP_pressure;BME280_temperature;BME280_humidity;BME280_pressure;Samples;Min_cycle;Max_cycle;Signal;HPM_P1;HPM_P2
2021/12/14 00:01:11;;;;;;;0.10;0.10;;;8.60;99.90;;;;;;5102068;27;20060;-79
2021/12/14 00:03:41;;;;;;;2.45;0.38;;;8.60;99.90;;;;;;5101325;27;20474;-79
2021/12/14 00:06:09;;;;;;;0.98;0.03;;;8.60;99.90;;;;;;5118860;27;20122;-79
2021/12/14 00:08:47;;;;;;;0.10;0.00;;;8.60;99.90;;;;;;5118373;27;20047;-80
2021/12/14 00:11:31;;;;;;;0.03;0.00;;;8.50;99.90;;;;;;5118204;27;20085;-80
2021/12/14 00:16:45;;;;;;;0.10;0.10;;;8.60;99.90;;;;;;5056434;28;20094;-80
2021/12/14 00:19:11;;;;;;;0.00;0.00;;;8.60;99.90;;;;;;5056175;28;20090;-80
2021/12/14 00:21:38;;;;;;;0.60;0.30;;;8.50;99.90;;;;;;5056026;28;20052;-80
2021/12/14 00:24:10;;;;;;;0.10;0.10;;;8.50;99.90;;;;;;5056242;28;20086;-80
2021/12/14 00:26:41;;;;;;;1.65;0.32;;;8.50;99.90;;;;;;5056100;28;20095;-80
2021/12/14 00:29:09;;;;;;;0.10;0.10;;;8.50;99.90;;;;;;5038977;28;20063;-79
2021/12/14 00:31:36;;;;;;;0.00;0.00;;;8.60;99.90;;;;;;5039124;28;20083;-80
2021/12/14 00:34:06;;;;;;;0.10;0.10;;;8.50;99.90;;;;;;5039600;28;20052;-80
2021/12/14 00:36:32;;;;;;;0.00;0.00;;;8.50;99.90;;;;;;5039406;28;20040;-79
2021/12/14 00:38:58;;;;;;;0.10;0.10;;;8.50;99.90;;;;;;5055131;28;20056;-79
2021/12/14 00:41:30;;;;;;;0.55;0.38;;;8.50;99.90;;;;;;5039958;28;20101;-79
2021/12/14 00:43:57;;;;;;;0.15;0.10;;;8.60;99.90;;;;;;5056022;28;20087;-79
2021/12/14 00:46:24;;;;;;;0.22;0.22;;;8.60;99.90;;;;;;5038720;28;20059;-80
2021/12/14 00:48:50;;;;;;;0.10;0.00;;;8.60;99.90;;;;;;5039739;28;20048;-79
2021/12/14 00:51:18;;;;;;;0.20;0.20;;;8.60;99.90;;;;;;5039294;28;20040;-80
2021/12/14 00:53:44;;;;;;;0.08;0.08;;;8.50;99.90;;;;;;5084844;27;20374;-80
2021/12/14 00:56:11;;;;;;;1.17;0.00;;;8.60;99.90;;;;;;5117639;27;20045;-79
2021/12/14 00:58:40;;;;;;;0.00;0.00;;;8.50;99.90;;;;;;5117633;27;20428;-79
2021/12/14 01:01:14;;;;;;;0.57;0.08;;;8.50;99.90;;;;;;5100380;27;20086;-80
2021/12/14 01:03:42;;;;;;;0.45;0.30;;;8.50;99.90;;;;;;5100900;27;20079;-80
2021/12/14 01:06:11;;;;;;;0.00;0.00;;;8.50;99.90;;;;;;5099847;27;20063;-80
2021/12/14 01:08:39;;;;;;;0.00;0.00;;;8.50;99.90;;;;;;5099793;27;20055;-80
2021/12/14 01:11:12;;;;;;;1.75;0.43;;;8.50;99.90;;;;;;5116975;27;20043;-80
2021/12/14 01:13:50;;;;;;;0.20;0.20;;;8.50;99.90;;;;;;5100257;27;20446;-80
2021/12/14 01:16:32;;;;;;;0.10;0.10;;;8.50;99.90;;;;;;5117367;27;20043;-79
2021/12/14 01:19:12;;;;;;;0.65;0.40;;;8.50;99.90;;;;;;5100853;27;20044;-80
2021/12/14 01:24:22;;;;;;;0.35;0.35;;;8.50;99.90;;;;;;5117167;27;20047;-80
2021/12/14 01:26:48;;;;;;;0.20;0.20;;;8.50;99.90;;;;;;5117211;27;20047;-80
2021/12/14 01:29:17;;;;;;;0.45;0.45;;;8.50;99.90;;;;;;5100279;27;20375;-80
2021/12/14 01:31:43;;;;;;;0.00;0.00;;;8.50;99.90;;;;;;5117185;28;20042;-80
2021/12/14 01:34:14;;;;;;;0.10;0.10;;;8.40;99.90;;;;;;5100540;27;20059;-80
2021/12/14 01:36:45;;;;;;;0.00;0.00;;;8.50;99.90;;;;;;5100692;27;20523;-79
2021/12/14 01:42:02;;;;;;;0.35;0.35;;;8.50;99.90;;;;;;5117583;28;20107;-80
2021/12/14 01:44:34;;;;;;;0.40;0.40;;;8.50;99.90;;;;;;5117312;28;20436;-80
2021/12/14 01:47:06;;;;;;;0.17;0.17;;;8.40;99.90;;;;;;5099502;28;20050;-80
2021/12/14 01:49:32;;;;;;;0.10;0.10;;;8.40;99.90;;;;;;5100115;28;20402;-80
2021/12/14 01:52:04;;;;;;;0.10;0.10;;;8.50;99.90;;;;;;5116326;28;20047;-80
2021/12/14 01:54:39;;;;;;;0.00;0.00;;;8.40;99.90;;;;;;5099442;28;20055;-80
2021/12/14 01:57:08;;;;;;;0.08;0.08;;;8.50;99.90;;;;;;5117727;28;20043;-80
2021/12/14 01:59:38;;;;;;;0.15;0.15;;;8.40;99.90;;;;;;5099659;28;20501;-80
2021/12/14 02:02:18;;;;;;;0.55;0.10;;;8.50;99.90;;;;;;5116677;28;20089;-80
2021/12/14 02:04:46;;;;;;;0.30;0.30;;;8.50;99.90;;;;;;5099927;28;20054;-80
2021/12/14 02:07:14;;;;;;;0.05;0.05;;;8.50;99.90;;;;;;5099522;28;20061;-80
2021/12/14 02:09:41;;;;;;;0.10;0.10;;;8.40;99.90;;;;;;5099793;28;20058;-80
2021/12/14 02:12:16;;;;;;;0.30;0.30;;;8.50;99.90;;;;;;5116363;28;20179;-80
2021/12/14 02:14:43;;;;;;;0.68;0.00;;;8.50;99.90;;;;;;5099524;28;20483;-81
2021/12/14 02:17:12;;;;;;;1.45;0.65;;;8.40;99.90;;;;;;5116039;28;20043;-80
2021/12/14 02:19:39;;;;;;;0.00;0.00;;;8.40;99.90;;;;;;5116432;28;20095;-80
2021/12/14 02:22:08;;;;;;;0.00;0.00;;;8.40;99.90;;;;;;5099632;28;20086;-80
2021/12/14 02:24:35;;;;;;;0.00;0.00;;;8.40;99.90;;;;;;5117031;28;20050;-80
2021/12/14 02:27:01;;;;;;;0.45;0.10;;;8.40;99.90;;;;;;5099625;28;20494;-80
2021/12/14 02:29:34;;;;;;;0.43;0.30;;;8.40;99.90;;;;;;5116794;28;20130;-81
2021/12/14 02:32:13;;;;;;;0.15;0.10;;;8.40;99.90;;;;;;5116121;28;20138;-80
2021/12/14 02:34:46;;;;;;;0.00;0.00;;;8.40;99.90;;;;;;5099354;28;20047;-80
2021/12/14 02:37:13;;;;;;;0.00;0.00;;;8.50;99.90;;;;;;5098753;28;20133;-80
2021/12/14 02:42:07;;;;;;;0.10;0.10;;;8.40;99.90;;;;;;5115709;28;20047;-80
2021/12/14 02:44:33;;;;;;;0.22;0.22;;;8.40;99.90;;;;;;5099485;28;20051;-80
2021/12/14 02:47:06;;;;;;;2.08;1.65;;;8.50;99.90;;;;;;5116422;28;20058;-80
2021/12/14 02:49:35;;;;;;;0.10;0.10;;;8.40;99.90;;;;;;5098988;28;20059;-80
2021/12/14 02:52:05;;;;;;;1.13;0.40;;;8.40;99.90;;;;;;5117523;27;20043;-80
2021/12/14 02:54:36;;;;;;;2.85;0.17;;;8.50;99.90;;;;;;5102689;27;20047;-80
2021/12/14 02:57:10;;;;;;;0.10;0.10;;;8.50;99.90;;;;;;5119091;27;20072;-80
2021/12/14 02:59:38;;;;;;;0.15;0.15;;;8.50;99.90;;;;;;5119382;27;20053;-80
2021/12/14 03:02:09;;;;;;;0.68;0.38;;;8.50;99.90;;;;;;5103304;27;20493;-80
2021/12/14 03:04:45;;;;;;;1.35;0.63;;;8.50;99.90;;;;;;5102729;27;20047;-80
2021/12/14 03:07:12;;;;;;;2.30;0.50;;;8.50;99.90;;;;;;5102700;27;20055;-80
2021/12/14 03:12:31;;;;;;;0.00;0.00;;;8.50;99.90;;;;;;5119884;27;20059;-80
2021/12/14 03:15:06;;;;;;;0.45;0.20;;;8.50;99.90;;;;;;5119683;27;20050;-80
2021/12/14 03:17:32;;;;;;;1.00;0.88;;;8.50;99.90;;;;;;5119668;27;20043;-80
2021/12/14 03:20:03;;;;;;;1.48;0.30;;;8.50;99.90;;;;;;5120734;27;20043;-80
2021/12/14 03:22:38;;;;;;;4.57;2.28;;;8.40;99.90;;;;;;5119454;27;20478;-79
2021/12/14 03:25:05;;;;;;;0.00;0.00;;;8.50;99.90;;;;;;5119343;27;20510;-80
2021/12/14 03:27:31;;;;;;;1.15;0.50;;;8.50;99.90;;;;;;5118824;27;20054;-80
2021/12/14 03:29:58;;;;;;;2.58;0.38;;;8.40;99.90;;;;;;5101391;27;20073;-80
2021/12/14 03:32:24;;;;;;;0.43;0.43;;;8.50;99.90;;;;;;5102057;27;20046;-80
2021/12/14 03:34:49;;;;;;;0.52;0.40;;;8.40;99.90;;;;;;5118964;27;20078;-80
2021/12/14 03:37:21;;;;;;;2.40;0.45;;;8.40;99.90;;;;;;5118594;27;20398;-80
2021/12/14 03:39:50;;;;;;;0.10;0.10;;;8.50;99.90;;;;;;5101310;27;20051;-80
2021/12/14 03:42:25;;;;;;;0.45;0.22;;;8.40;99.90;;;;;;5118658;27;20039;-80
2021/12/14 03:44:56;;;;;;;2.30;0.98;;;8.40;99.90;;;;;;5101961;27;20039;-80
2021/12/14 03:47:27;;;;;;;13.63;1.23;;;8.50;99.90;;;;;;5118602;27;20087;-80
2021/12/14 03:50:01;;;;;;;0.10;0.10;;;8.40;99.90;;;;;;5101812;27;20502;-80
2021/12/14 03:52:33;;;;;;;0.30;0.30;;;8.50;99.90;;;;;;5102275;27;20043;-80
2021/12/14 03:55:04;;;;;;;1.08;0.45;;;8.50;99.90;;;;;;5101639;27;20103;-80
2021/12/14 03:57:30;;;;;;;0.45;0.22;;;8.50;99.90;;;;;;5101905;27;20561;-79
2021/12/14 03:59:56;;;;;;;0.13;0.13;;;8.40;99.90;;;;;;5102206;27;20133;-79
2021/12/14 04:02:22;;;;;;;0.13;0.05;;;8.40;99.90;;;;;;5118573;27;20045;-79
2021/12/14 04:05:06;;;;;;;0.10;0.10;;;8.40;99.90;;;;;;5100791;27;20394;-80
2021/12/14 04:07:34;;;;;;;0.90;0.57;;;8.40;99.90;;;;;;5118105;27;20074;-80
2021/12/14 04:10:00;;;;;;;0.38;0.38;;;8.50;99.90;;;;;;5101711;27;20050;-80
2021/12/14 04:12:26;;;;;;;0.32;0.32;;;8.40;99.90;;;;;;5118732;27;20053;-79
2021/12/14 04:14:57;;;;;;;0.10;0.10;;;8.40;99.90;;;;;;5101381;27;20072;-79
2021/12/14 04:17:26;;;;;;;0.10;0.10;;;8.50;99.90;;;;;;5101553;27;20043;-80
2021/12/14 04:19:52;;;;;;;0.95;0.40;;;8.30;99.90;;;;;;5100840;27;20047;-80
2021/12/14 04:22:23;;;;;;;0.08;0.05;;;8.40;99.90;;;;;;5117924;27;20150;-79
2021/12/14 04:24:52;;;;;;;0.10;0.10;;;8.40;99.90;;;;;;5101898;27;20058;-79
2021/12/14 04:27:25;;;;;;;0.22;0.20;;;8.40;99.90;;;;;;5101205;27;20042;-79
2021/12/14 04:29:52;;;;;;;0.25;0.25;;;8.40;99.90;;;;;;5101706;27;20401;-79
2021/12/14 04:32:18;;;;;;;0.40;0.10;;;8.40;99.90;;;;;;5101344;27;20051;-80
2021/12/14 04:34:46;;;;;;;0.55;0.38;;;8.40;99.90;;;;;;5101572;27;20093;-80
2021/12/14 04:37:15;;;;;;;0.32;0.10;;;8.40;99.90;;;;;;5100951;27;20050;-79
2021/12/14 04:39:46;;;;;;;0.98;0.47;;;8.40;99.90;;;;;;5101088;27;20120;-79
2021/12/14 04:53:44;;;;;;;3.38;0.40;;;8.40;99.90;;;;;;5118154;27;20043;-80
2021/12/14 04:56:14;;;;;;;0.10;0.10;;;8.30;99.90;;;;;;5117434;27;20077;-80
2021/12/14 04:58:45;;;;;;;1.15;1.05;;;8.30;99.90;;;;;;5100589;27;20047;-80
2021/12/14 05:01:15;;;;;;;0.10;0.10;;;8.30;99.90;;;;;;5101157;27;20061;-80
2021/12/14 05:03:43;;;;;;;1.33;0.68;;;8.30;99.90;;;;;;5100699;27;20055;-80
2021/12/14 05:06:16;;;;;;;0.17;0.17;;;8.30;99.90;;;;;;5100722;27;20050;-80
2021/12/14 05:11:23;;;;;;;0.50;0.40;;;8.20;99.90;;;;;;5117360;27;20058;-79
2021/12/14 05:14:02;;;;;;;1.02;0.63;;;8.20;99.90;;;;;;5099793;27;20073;-79
2021/12/14 05:16:30;;;;;;;0.63;0.52;;;8.20;99.90;;;;;;5117963;27;20040;-79
2021/12/14 05:19:00;;;;;;;0.80;0.38;;;8.20;99.90;;;;;;5117335;27;20043;-79
2021/12/14 05:21:32;;;;;;;0.17;0.17;;;8.10;99.90;;;;;;5117176;27;20126;-79
2021/12/14 05:24:00;;;;;;;0.03;0.03;;;8.10;99.90;;;;;;5117397;27;20058;-79
2021/12/14 05:26:26;;;;;;;1.20;0.35;;;8.10;99.90;;;;;;5116896;27;20043;-79
2021/12/14 05:28:53;;;;;;;0.30;0.30;;;8.10;99.90;;;;;;5117008;27;20062;-79
2021/12/14 05:31:19;;;;;;;0.05;0.05;;;8.20;99.90;;;;;;5100097;27;20490;-79
2021/12/14 05:33:45;;;;;;;0.08;0.08;;;8.20;99.90;;;;;;5117704;27;20043;-80
2021/12/14 05:36:16;;;;;;;2.35;0.80;;;8.20;99.90;;;;;;5100076;27;20047;-80
2021/12/14 05:44:08;;;;;;;1.75;0.52;;;8.20;99.90;;;;;;5117403;27;20051;-80
2021/12/14 05:46:35;;;;;;;1.85;0.38;;;8.20;99.90;;;;;;5099831;28;20051;-80
2021/12/14 05:49:05;;;;;;;0.88;0.57;;;8.20;99.90;;;;;;5100332;28;20090;-80
2021/12/14 05:51:32;;;;;;;0.55;0.50;;;8.30;99.90;;;;;;5100742;28;20490;-81
2021/12/14 05:53:59;;;;;;;1.30;0.73;;;8.20;99.90;;;;;;5117365;28;20050;-80
2021/12/14 05:56:27;;;;;;;0.65;0.65;;;8.30;99.90;;;;;;5117226;28;20058;-80
2021/12/14 05:58:55;;;;;;;0.25;0.20;;;8.30;99.90;;;;;;5100081;28;20116;-80
2021/12/14 06:01:26;;;;;;;0.30;0.22;;;8.30;99.90;;;;;;5117130;28;20043;-80
2021/12/14 06:03:56;;;;;;;0.00;0.00;;;8.30;99.90;;;;;;5100725;28;20372;-80
2021/12/14 06:06:29;;;;;;;0.15;0.15;;;8.30;99.90;;;;;;5100378;28;20047;-80
2021/12/14 06:09:06;;;;;;;1.23;0.70;;;8.30;99.90;;;;;;5100006;28;20517;-80
2021/12/14 06:11:33;;;;;;;0.50;0.25;;;8.30;99.90;;;;;;5099693;28;20395;-80
2021/12/14 06:13:58;;;;;;;1.55;0.68;;;8.30;99.90;;;;;;5100074;28;20092;-80
2021/12/14 06:16:32;;;;;;;0.95;0.80;;;8.30;99.90;;;;;;5100152;28;20071;-80
2021/12/14 06:19:16;;;;;;;0.38;0.38;;;8.30;99.90;;;;;;5100044;28;20131;-80
2021/12/14 06:21:43;;;;;;;1.27;0.30;;;8.30;99.90;;;;;;5116304;28;20138;-80
2021/12/14 06:24:11;;;;;;;0.82;0.43;;;8.30;99.90;;;;;;5116036;28;20047;-80
2021/12/14 06:26:43;;;;;;;0.77;0.77;;;8.20;99.90;;;;;;5118029;27;20043;-80
2021/12/14 06:29:17;;;;;;;1.02;0.10;;;8.20;99.90;;;;;;5120688;27;20043;-80
2021/12/14 06:31:43;;;;;;;1.13;1.02;;;8.20;99.90;;;;;;5104101;27;20043;-80
2021/12/14 06:34:22;;;;;;;0.20;0.20;;;8.20;99.90;;;;;;5103932;27;20149;-80
2021/12/14 06:37:03;;;;;;;1.55;1.42;;;8.20;99.90;;;;;;5103873;27;20042;-80
2021/12/14 06:39:31;;;;;;;0.45;0.30;;;8.20;99.90;;;;;;5103496;27;20188;-79
2021/12/14 06:42:11;;;;;;;0.10;0.10;;;8.20;99.90;;;;;;5091523;27;20458;-80
2021/12/14 06:44:37;;;;;;;0.65;0.47;;;8.20;99.90;;;;;;5090972;28;20052;-80
2021/12/14 06:47:03;;;;;;;1.30;0.88;;;8.20;99.90;;;;;;5090320;28;20506;-80
2021/12/14 06:49:29;;;;;;;1.33;0.73;;;8.20;99.90;;;;;;5107560;28;20121;-80
2021/12/14 06:51:56;;;;;;;0.95;0.52;;;8.20;99.90;;;;;;5090418;28;20400;-81
2021/12/14 06:54:28;;;;;;;1.55;1.55;;;8.20;99.90;;;;;;5090617;28;20054;-81
2021/12/14 06:56:57;;;;;;;0.80;0.57;;;8.10;99.90;;;;;;5073540;28;20499;-80
2021/12/14 06:59:23;;;;;;;0.45;0.45;;;8.20;99.90;;;;;;5073694;28;20068;-79
2021/12/14 07:01:54;;;;;;;0.30;0.30;;;8.00;99.90;;;;;;5089930;28;20387;-79
2021/12/14 07:04:27;;;;;;;1.52;0.30;;;8.10;99.90;;;;;;5072966;28;20496;-80
2021/12/14 07:06:56;;;;;;;0.57;0.57;;;8.10;99.90;;;;;;5090800;28;20160;-80
2021/12/14 07:09:35;;;;;;;1.58;0.98;;;8.10;99.90;;;;;;5090381;28;20041;-80
2021/12/14 07:12:07;;;;;;;1.20;1.15;;;8.10;99.90;;;;;;5073058;28;20556;-81
2021/12/14 07:14:33;;;;;;;1.48;0.40;;;8.10;99.90;;;;;;5065989;28;20500;-83
2021/12/14 07:17:09;;;;;;;0.40;0.40;;;8.10;99.90;;;;;;5059701;28;20095;-83
2021/12/14 07:19:43;;;;;;;0.93;0.73;;;8.10;99.90;;;;;;5057611;28;20072;-85
2021/12/14 07:22:28;;;;;;;1.55;0.43;;;8.10;99.90;;;;;;5077785;28;20040;-85
2021/12/14 07:25:12;;;;;;;2.00;0.25;;;8.10;99.90;;;;;;5062066;28;20053;-85
2021/12/14 07:27:49;;;;;;;0.95;0.90;;;8.10;99.90;;;;;;5063914;28;20049;-91
2021/12/14 07:30:20;;;;;;;3.72;0.65;;;8.10;99.90;;;;;;5062979;28;20052;-84
2021/12/14 07:32:56;;;;;;;0.50;0.47;;;8.10;99.90;;;;;;5057160;28;20434;-84
2021/12/14 07:35:53;;;;;;;0.90;0.85;;;8.20;99.90;;;;;;5062098;28;20132;-86
2021/12/14 07:38:27;;;;;;;0.55;0.40;;;8.20;99.90;;;;;;5060130;28;20052;-85
2021/12/14 07:41:12;;;;;;;0.40;0.40;;;8.20;99.90;;;;;;5062021;28;20098;-84
2021/12/14 07:43:48;;;;;;;2.78;1.08;;;8.20;99.90;;;;;;5065103;28;20051;-85
2021/12/14 07:46:38;;;;;;;2.45;1.02;;;8.20;99.90;;;;;;5062150;28;20044;-85
2021/12/14 07:49:19;;;;;;;3.22;1.05;;;8.20;99.90;;;;;;5060159;28;20095;-84
2021/12/14 07:51:47;;;;;;;2.20;1.65;;;8.20;99.90;;;;;;5059940;28;20074;-85
2021/12/14 07:54:19;;;;;;;0.90;0.85;;;8.20;99.90;;;;;;5048217;28;20059;-80
2021/12/14 07:56:51;;;;;;;2.55;0.90;;;8.30;99.90;;;;;;5047533;28;20057;-81
2021/12/14 07:59:40;;;;;;;0.82;0.45;;;8.20;99.90;;;;;;5049975;28;20082;-80
2021/12/14 08:02:15;;;;;;;4.65;1.70;;;8.20;99.90;;;;;;5049398;28;20528;-81
2021/12/14 08:04:43;;;;;;;;;;;8.20;99.90;;;;;;5065062;28;20396;-80
2021/12/14 08:07:09;;;;;;;2.42;0.88;;;8.20;99.90;;;;;;5047736;28;19943;-82
2021/12/14 08:09:49;;;;;;;3.45;1.45;;;8.30;99.90;;;;;;5065706;28;20044;-81
2021/12/14 08:12:40;;;;;;;0.75;0.52;;;8.20;99.90;;;;;;5065003;28;20493;-81
2021/12/14 08:15:15;;;;;;;1.48;0.75;;;8.30;99.90;;;;;;5047228;28;20424;-81
2021/12/14 08:17:44;;;;;;;1.35;1.25;;;8.30;99.90;;;;;;5065228;28;20168;-82
2021/12/14 08:20:14;;;;;;;0.70;0.70;;;8.30;99.90;;;;;;5066826;28;20041;-81
2021/12/14 08:22:41;;;;;;;1.38;1.08;;;8.30;99.90;;;;;;5064753;28;20041;-81
2021/12/14 08:25:10;;;;;;;0.30;0.30;;;8.30;99.90;;;;;;5064394;28;20056;-81
2021/12/14 08:27:37;;;;;;;1.23;0.45;;;8.30;99.90;;;;;;5064577;28;20049;-82
2021/12/14 08:30:08;;;;;;;1.17;0.60;;;8.30;99.90;;;;;;5047652;28;20590;-83
2021/12/14 08:32:38;;;;;;;1.15;0.75;;;8.30;99.90;;;;;;5061858;28;20124;-82
2021/12/14 08:35:08;;;;;;;0.55;0.45;;;8.30;99.90;;;;;;5046002;28;20118;-82
2021/12/14 08:37:45;;;;;;;0.40;0.40;;;8.30;99.90;;;;;;5061677;28;20045;-83
2021/12/14 08:40:15;;;;;;;4.13;0.28;;;8.40;99.90;;;;;;5040636;28;20053;-83
2021/12/14 08:43:07;;;;;;;1.02;0.17;;;8.40;99.90;;;;;;5057365;28;20048;-82
2021/12/14 08:45:55;;;;;;;2.85;0.77;;;8.40;99.90;;;;;;5057585;28;20485;-82
2021/12/14 08:48:35;;;;;;;0.25;0.25;;;8.40;99.90;;;;;;5058333;28;20048;-82
2021/12/14 08:51:14;;;;;;;0.43;0.43;;;8.40;99.90;;;;;;5057937;28;20056;-82
2021/12/14 08:53:46;;;;;;;0.35;0.35;;;8.40;99.90;;;;;;5074749;28;20048;-82
2021/12/14 08:56:13;;;;;;;0.30;0.30;;;8.50;99.90;;;;;;5058489;28;20054;-82
2021/12/14 08:58:40;;;;;;;3.50;0.80;;;8.50;99.90;;;;;;5058186;28;20079;-82
2021/12/14 09:01:12;;;;;;;0.25;0.25;;;8.50;99.90;;;;;;5057851;28;20071;-82
2021/12/14 09:03:44;;;;;;;2.05;0.38;;;8.50;99.90;;;;;;5057021;28;20055;-81
2021/12/14 09:06:14;;;;;;;0.80;0.80;;;8.60;99.90;;;;;;5058248;28;20066;-81
2021/12/14 09:08:42;;;;;;;2.47;1.13;;;8.60;99.90;;;;;;5057623;28;20407;-81
2021/12/14 09:11:11;;;;;;;1.08;0.82;;;8.60;99.90;;;;;;5074503;28;20082;-82
2021/12/14 09:13:38;;;;;;;0.82;0.63;;;8.60;99.90;;;;;;5074372;28;20045;-83
2021/12/14 09:16:10;;;;;;;0.70;0.40;;;8.60;99.90;;;;;;5075379;28;20127;-82
2021/12/14 09:18:40;;;;;;;2.38;1.05;;;8.60;99.90;;;;;;5058267;28;20139;-82
2021/12/14 09:21:11;;;;;;;2.00;1.33;;;8.60;99.90;;;;;;5074212;28;20087;-82
2021/12/14 09:23:41;;;;;;;2.75;1.08;;;8.60;99.90;;;;;;5057339;28;20526;-82
2021/12/14 09:26:14;;;;;;;4.47;0.95;;;8.70;99.90;;;;;;5057772;28;20052;-82
2021/12/14 09:28:40;;;;;;;1.25;1.15;;;8.70;99.90;;;;;;5074411;28;20398;-82
2021/12/14 09:31:09;;;;;;;0.57;0.57;;;8.70;99.90;;;;;;5074512;28;20129;-82
2021/12/14 09:33:38;;;;;;;5.93;1.50;;;8.70;99.90;;;;;;5058082;28;20080;-82
2021/12/14 09:36:11;;;;;;;2.47;0.93;;;8.70;99.90;;;;;;5073652;28;20048;-82
2021/12/14 09:38:42;;;;;;;1.95;0.60;;;8.70;99.90;;;;;;5073749;28;20523;-83
2021/12/14 09:41:13;;;;;;;1.05;0.43;;;8.70;99.90;;;;;;5073483;28;20060;-82
2021/12/14 09:43:40;;;;;;;2.65;1.55;;;8.70;99.90;;;;;;5073843;28;20048;-82
2021/12/14 09:46:08;;;;;;;0.57;0.57;;;8.70;99.90;;;;;;5073525;28;20044;-82
2021/12/14 09:48:46;;;;;;;3.63;1.45;;;8.70;99.90;;;;;;5056929;28;20135;-82
2021/12/14 09:51:17;;;;;;;0.25;0.25;;;8.80;99.90;;;;;;5057049;28;20091;-82
2021/12/14 09:53:47;;;;;;;0.70;0.43;;;8.70;99.90;;;;;;5057466;28;20064;-82
2021/12/14 09:56:17;;;;;;;1.55;0.90;;;8.70;99.90;;;;;;5074329;28;20055;-82
2021/12/14 09:58:47;;;;;;;5.65;0.90;;;8.80;99.90;;;;;;5057609;28;20059;-82
2021/12/14 10:01:25;;;;;;;1.10;0.68;;;8.90;99.90;;;;;;5073718;28;20113;-82
2021/12/14 10:03:53;;;;;;;1.27;0.98;;;8.80;99.90;;;;;;5056712;28;20060;-82
2021/12/14 10:06:26;;;;;;;6.72;1.27;;;8.80;99.90;;;;;;5056061;28;20051;-82
2021/12/14 10:09:02;;;;;;;0.40;0.40;;;8.80;99.90;;;;;;5056962;28;20071;-82
2021/12/14 10:11:46;;;;;;;1.33;1.23;;;8.80;99.90;;;;;;5057349;28;20059;-82
2021/12/14 10:14:13;;;;;;;1.20;0.85;;;8.80;99.90;;;;;;5057236;28;20048;-82
2021/12/14 10:16:39;;;;;;;0.50;0.50;;;8.90;99.90;;;;;;5056630;28;20555;-82
2021/12/14 10:19:12;;;;;;;0.35;0.30;;;8.90;99.90;;;;;;5073934;28;20141;-82
2021/12/14 10:21:49;;;;;;;0.45;0.30;;;8.90;99.90;;;;;;5056550;28;20040;-82
2021/12/14 10:24:16;;;;;;;1.48;1.42;;;8.80;99.90;;;;;;5072889;28;20048;-82
2021/12/14 10:26:48;;;;;;;0.65;0.50;;;8.90;99.90;;;;;;5056594;28;20115;-82
2021/12/14 10:29:15;;;;;;;0.20;0.20;;;8.90;99.90;;;;;;5074290;28;20053;-82
2021/12/14 10:31:49;;;;;;;0.25;0.25;;;8.90;99.90;;;;;;5073627;28;20102;-82
2021/12/14 10:34:28;;;;;;;0.70;0.40;;;8.90;99.90;;;;;;5056571;28;20487;-82
2021/12/14 10:37:05;;;;;;;0.75;0.30;;;8.90;99.90;;;;;;5056468;28;20102;-82
2021/12/14 10:44:49;;;;;;;0.93;0.60;;;8.90;99.90;;;;;;5073688;28;20053;-82
2021/12/14 10:47:17;;;;;;;0.63;0.63;;;8.90;99.90;;;;;;5073498;28;20044;-83
2021/12/14 10:49:43;;;;;;;4.68;0.82;;;8.90;99.90;;;;;;5073059;28;20087;-82
2021/12/14 10:52:17;;;;;;;0.45;0.45;;;8.90;99.90;;;;;;5056767;28;20444;-82
2021/12/14 10:54:50;;;;;;;0.40;0.40;;;8.90;99.90;;;;;;5056315;28;20057;-82
2021/12/14 10:57:19;;;;;;;0.47;0.47;;;9.00;99.90;;;;;;5056355;28;20369;-82
2021/12/14 10:59:49;;;;;;;0.40;0.40;;;9.00;99.90;;;;;;5056292;28;20110;-83
2021/12/14 11:02:15;;;;;;;0.35;0.35;;;8.90;99.90;;;;;;5072156;28;20373;-82
2021/12/14 11:04:52;;;;;;;0.88;0.75;;;8.90;99.90;;;;;;5072472;28;20102;-84
2021/12/14 11:07:24;;;;;;;0.05;0.05;;;8.80;99.90;;;;;;5072932;28;20059;-82
2021/12/14 11:09:53;;;;;;;0.15;0.15;;;8.90;99.90;;;;;;5072846;28;20127;-82
2021/12/14 11:12:45;;;;;;;1.13;0.38;;;9.00;99.90;;;;;;5056350;28;20045;-82
2021/12/14 11:15:23;;;;;;;1.42;0.47;;;9.00;99.90;;;;;;5069789;28;20056;-83
2021/12/14 11:18:11;;;;;;;0.95;0.80;;;9.00;99.90;;;;;;5073264;28;20086;-82
2021/12/14 11:20:53;;;;;;;3.85;0.40;;;9.00;99.90;;;;;;5073084;28;20108;-82
2021/12/14 11:23:24;;;;;;;1.02;1.02;;;9.00;99.90;;;;;;5073591;28;20044;-82
2021/12/14 11:25:50;;;;;;;2.03;1.25;;;9.00;99.90;;;;;;5056681;28;20057;-82
2021/12/14 11:28:34;;;;;;;1.73;0.38;;;9.10;99.90;;;;;;5058330;28;20040;-82
2021/12/14 11:31:09;;;;;;;0.82;0.68;;;9.10;99.90;;;;;;5059478;28;20044;-82
2021/12/14 11:33:45;;;;;;;1.38;0.30;;;9.10;99.90;;;;;;5076726;28;20087;-81
2021/12/14 11:36:25;;;;;;;0.10;0.10;;;9.10;99.90;;;;;;5076528;28;20047;-82
2021/12/14 11:39:22;;;;;;;0.40;0.30;;;9.00;99.90;;;;;;5059816;28;20049;-82
2021/12/14 11:42:20;;;;;;;0.38;0.35;;;9.10;99.90;;;;;;5076557;28;20057;-82
2021/12/14 11:45:09;;;;;;;0.32;0.32;;;9.10;99.90;;;;;;5001921;28;20091;-82
2021/12/14 11:47:46;;;;;;;3.97;1.95;;;9.10;99.90;;;;;;5018995;28;20045;-82
2021/12/14 11:50:31;;;;;;;0.50;0.30;;;9.20;99.90;;;;;;5018701;28;20111;-82
2021/12/14 11:53:18;;;;;;;0.73;0.55;;;9.10;99.90;;;;;;5018191;28;20123;-82
2021/12/14 11:55:58;;;;;;;0.88;0.80;;;9.10;99.90;;;;;;5018386;28;20095;-81
2021/12/14 11:58:36;;;;;;;0.22;0.22;;;9.10;99.90;;;;;;5001635;28;20509;-81
2021/12/14 12:01:10;;;;;;;1.33;0.43;;;9.10;99.90;;;;;;5018582;28;20508;-82
2021/12/14 12:03:48;;;;;;;0.20;0.10;;;9.10;99.90;;;;;;5001108;28;20433;-81
2021/12/14 12:11:53;;;;;;;1.15;1.02;;;9.10;99.90;;;;;;5018469;28;20054;-80
2021/12/14 12:14:31;;;;;;;0.25;0.25;;;9.10;99.90;;;;;;5018228;28;20049;-80
2021/12/14 12:17:17;;;;;;;6.40;0.95;;;9.10;99.90;;;;;;5001631;28;20058;-81
2021/12/14 12:20:09;;;;;;;0.20;0.10;;;9.10;99.90;;;;;;5018248;28;20049;-80
2021/12/14 12:22:39;;;;;;;0.85;0.30;;;9.10;99.90;;;;;;5069725;28;20440;-81
2021/12/14 12:25:13;;;;;;;0.20;0.20;;;9.10;99.90;;;;;;5075832;28;20040;-81
2021/12/14 12:27:46;;;;;;;0.38;0.38;;;9.10;99.90;;;;;;5075547;28;20178;-80
2021/12/14 12:30:39;;;;;;;0.20;0.10;;;9.10;99.90;;;;;;5075502;28;20151;-80
2021/12/14 12:33:28;;;;;;;0.77;0.77;;;9.10;99.90;;;;;;5075646;28;20049;-80
2021/12/14 12:36:01;;;;;;;1.40;0.65;;;9.10;99.90;;;;;;5074251;28;20052;-83
2021/12/14 12:38:44;;;;;;;2.05;0.43;;;9.10;99.90;;;;;;5053712;28;20048;-81
2021/12/14 12:41:26;;;;;;;0.45;0.45;;;9.10;99.90;;;;;;5055947;28;20048;-83
2021/12/14 12:44:07;;;;;;;0.32;0.28;;;9.10;99.90;;;;;;5056003;28;20063;-82
2021/12/14 12:46:47;;;;;;;0.38;0.30;;;9.10;99.90;;;;;;5056661;28;20100;-81
2021/12/14 12:49:29;;;;;;;0.20;0.20;;;9.10;99.90;;;;;;5055908;28;20079;-81
2021/12/14 12:52:10;;;;;;;2.17;1.02;;;9.10;99.90;;;;;;5072927;28;20055;-81
2021/12/14 12:55:05;;;;;;;0.22;0.22;;;9.10;99.90;;;;;;5046845;28;20136;-80
2021/12/14 12:57:34;;;;;;;1.52;0.25;;;9.00;99.90;;;;;;5047838;28;20385;-81
2021/12/14 13:00:15;;;;;;;0.43;0.10;;;9.10;99.90;;;;;;5058055;28;20063;-81
2021/12/14 13:03:05;;;;;;;0.28;0.20;;;9.10;99.90;;;;;;5064932;28;20775;-81
2021/12/14 13:05:53;;;;;;;0.70;0.10;;;9.10;99.90;;;;;;5073009;28;20044;-82
2021/12/14 13:08:36;;;;;;;0.38;0.38;;;9.10;99.90;;;;;;5054854;28;20059;-80
2021/12/14 13:11:13;;;;;;;0.43;0.43;;;9.10;99.90;;;;;;5055214;28;20048;-81
2021/12/14 13:13:52;;;;;;;0.38;0.20;;;9.10;99.90;;;;;;5055771;28;20099;-81
2021/12/14 13:16:20;;;;;;;0.75;0.45;;;9.10;99.90;;;;;;5072671;28;20044;-81
2021/12/14 13:18:51;;;;;;;0.98;0.40;;;9.10;99.90;;;;;;5073336;28;20041;-81
2021/12/14 13:21:27;;;;;;;0.40;0.40;;;9.10;99.90;;;;;;5074081;28;20040;-81
2021/12/14 13:23:59;;;;;;;0.10;0.10;;;9.10;99.90;;;;;;5058038;28;20060;-81
2021/12/14 13:26:33;;;;;;;0.08;0.08;;;9.00;99.90;;;;;;5074547;28;20127;-81
2021/12/14 13:29:04;;;;;;;0.52;0.40;;;9.10;99.90;;;;;;5074928;28;20040;-81
2021/12/14 13:31:54;;;;;;;0.22;0.22;;;9.00;99.90;;;;;;5057610;28;20052;-80
2021/12/14 13:34:46;;;;;;;0.03;0.00;;;9.10;99.90;;;;;;5058162;28;20107;-81
2021/12/14 13:37:25;;;;;;;0.98;0.40;;;9.10;99.90;;;;;;5057195;28;20133;-81
2021/12/14 13:39:54;;;;;;;0.20;0.10;;;9.10;99.90;;;;;;5057070;28;20049;-81
2021/12/14 13:42:42;;;;;;;0.10;0.10;;;9.10;99.90;;;;;;5073161;28;20545;-81
2021/12/14 13:45:13;;;;;;;0.00;0.00;;;9.10;99.90;;;;;;5057636;28;20045;-81
2021/12/14 13:47:40;;;;;;;0.50;0.17;;;9.10;99.90;;;;;;5073547;28;20045;-80
2021/12/14 13:50:13;;;;;;;0.10;0.00;;;9.10;99.90;;;;;;5073161;28;20120;-81
2021/12/14 13:52:39;;;;;;;0.00;0.00;;;9.10;99.90;;;;;;5056746;28;20451;-81
2021/12/14 13:55:34;;;;;;;0.15;0.15;;;9.10;99.90;;;;;;5073662;28;20052;-81
2021/12/14 13:58:11;;;;;;;3.80;0.40;;;9.10;99.90;;;;;;5056764;28;20500;-82
2021/12/14 14:01:08;;;;;;;0.40;0.38;;;9.10;99.90;;;;;;5056758;28;20041;-81
2021/12/14 14:03:39;;;;;;;1.00;0.30;;;9.10;99.90;;;;;;5052947;28;20123;-82
2021/12/14 14:06:09;;;;;;;0.00;0.00;;;9.10;99.90;;;;;;5074054;28;20123;-82
2021/12/14 14:08:44;;;;;;;0.63;0.63;;;9.10;99.90;;;;;;5073415;28;20055;-82
2021/12/14 14:11:23;;;;;;;0.43;0.00;;;9.10;99.90;;;;;;5057010;28;20049;-82